createdAt,value
2024-02-12T00:01:30.745Z,54.72
2024-02-12T00:04:04.319Z,54.75
2024-02-12T00:06:37.636Z,54.61
2024-02-12T00:09:14.067Z,54.71
2024-02-12T00:11:47.524Z,54.61
2024-02-12T00:14:21.155Z,54.77
2024-02-12T00:16:55.877Z,54.46
2024-02-12T00:19:30.116Z,54.94
2024-02-12T00:22:03.135Z,54.97
2024-02-12T00:24:38.410Z,55.11
2024-02-12T00:27:12.418Z,54.89
2024-02-12T00:29:45.643Z,54.85
2024-02-12T00:32:18.903Z,54.87
2024-02-12T00:34:52.161Z,54.90
2024-02-12T00:37:27.396Z,54.80
2024-02-12T00:40:01.792Z,54.79
2024-02-12T00:42:35.968Z,54.45
2024-02-12T00:45:10.556Z,54.55
2024-02-12T00:47:43.924Z,54.81
2024-02-12T00:50:17.094Z,54.78
2024-02-12T00:52:51.016Z,54.78
2024-02-12T00:55:25.649Z,54.90
2024-02-12T00:58:00.748Z,54.90
2024-02-12T01:00:33.887Z,55.04
2024-02-12T01:03:07.770Z,54.92
2024-02-12T01:05:41.081Z,55.03
2024-02-12T01:08:14.433Z,55.03
2024-02-12T01:10:49.256Z,54.94
2024-02-12T01:13:22.527Z,55.02
2024-02-12T01:15:56.188Z,55.14
2024-02-12T01:18:30.560Z,54.95
2024-02-12T01:21:04.301Z,55.08
2024-02-12T01:23:37.689Z,54.98
2024-02-12T01:26:14.686Z,54.94
2024-02-12T01:28:47.761Z,54.80
2024-02-12T01:31:20.967Z,54.82
2024-02-12T01:33:54.104Z,54.96
2024-02-12T01:36:28.269Z,55.00
2024-02-12T01:39:01.916Z,54.98
2024-02-12T01:41:38.165Z,54.90
2024-02-12T01:44:11.347Z,54.92
2024-02-12T01:46:50.067Z,54.82
2024-02-12T01:49:24.323Z,54.80
2024-02-12T01:51:57.314Z,54.99
2024-02-12T01:54:30.862Z,54.80
2024-02-12T01:57:06.709Z,55.06
2024-02-12T01:59:41.163Z,54.72
2024-02-12T02:02:16.287Z,54.99
2024-02-12T02:04:55.541Z,55.00
2024-02-12T02:07:28.861Z,55.14
2024-02-12T02:10:02.918Z,55.03
2024-02-12T02:12:37.735Z,54.91
2024-02-12T02:15:11.931Z,54.84
2024-02-12T02:17:45.128Z,54.86
2024-02-12T02:20:22.043Z,54.54
2024-02-12T02:22:55.686Z,54.74
2024-02-12T02:25:30.493Z,54.69
2024-02-12T02:28:06.193Z,54.65
2024-02-12T02:30:40.324Z,54.55
2024-02-12T02:33:13.937Z,54.63
2024-02-12T02:35:49.229Z,54.67
2024-02-12T02:38:24.167Z,54.62
2024-02-12T02:40:58.812Z,54.59
2024-02-12T02:43:32.761Z,54.71
2024-02-12T02:46:06.337Z,54.80
2024-02-12T02:48:41.193Z,54.94
2024-02-12T02:51:15.514Z,54.97
2024-02-12T02:53:48.580Z,54.74
2024-02-12T02:56:23.780Z,54.73
2024-02-12T02:58:57.333Z,54.41
2024-02-12T03:01:31.082Z,54.33
2024-02-12T03:04:04.409Z,54.48
2024-02-12T03:06:38.902Z,54.34
2024-02-12T03:09:12.084Z,54.12
2024-02-12T03:11:46.632Z,54.17
2024-02-12T03:14:19.863Z,54.06
2024-02-12T03:16:55.089Z,53.88
2024-02-12T03:19:28.125Z,53.83
2024-02-12T03:22:01.184Z,54.05
2024-02-12T03:24:34.308Z,54.11
2024-02-12T03:27:09.513Z,54.15
2024-02-12T03:29:43.981Z,54.25
2024-02-12T03:32:17.082Z,54.32
2024-02-12T03:34:50.148Z,54.25
2024-02-12T03:37:23.072Z,54.19
2024-02-12T03:39:55.945Z,54.23
2024-02-12T03:42:30.542Z,54.12
2024-02-12T03:45:06.277Z,54.01
2024-02-12T03:47:41.036Z,54.14
2024-02-12T03:50:35.036Z,54.13
2024-02-12T03:53:29.178Z,54.04
2024-02-12T03:56:19.904Z,54.22
2024-02-12T03:59:12.643Z,54.08
2024-02-12T04:01:45.635Z,54.10
2024-02-12T04:04:20.491Z,54.11
2024-02-12T04:06:53.967Z,54.02
2024-02-12T04:09:27.832Z,54.02
2024-02-12T04:12:01.049Z,54.24
2024-02-12T04:14:35.590Z,54.13
2024-02-12T04:17:10.720Z,53.96
2024-02-12T04:19:45.527Z,53.96
2024-02-12T04:22:19.244Z,54.20
2024-02-12T04:24:52.416Z,54.10
2024-02-12T04:27:25.815Z,54.12
2024-02-12T04:30:00.325Z,53.99
2024-02-12T04:32:35.052Z,53.92
2024-02-12T04:35:09.560Z,54.11
2024-02-12T04:37:46.661Z,54.05
2024-02-12T04:40:20.483Z,53.92
2024-02-12T04:42:54.912Z,54.05
2024-02-12T04:45:32.024Z,54.08
2024-02-12T04:48:13.523Z,54.05
2024-02-12T04:50:46.926Z,53.93
2024-02-12T04:53:20.286Z,53.92
2024-02-12T04:55:53.574Z,54.18
2024-02-12T04:58:26.697Z,53.97
2024-02-12T05:01:02.888Z,54.10
2024-02-12T05:03:37.480Z,54.17
2024-02-12T05:06:17.076Z,54.18
2024-02-12T05:08:51.680Z,54.06
2024-02-12T05:11:27.180Z,54.06
2024-02-12T05:14:00.689Z,54.27
2024-02-12T05:16:35.572Z,54.31
2024-02-12T05:19:26.692Z,54.13
2024-02-12T05:22:18.468Z,54.03
2024-02-12T05:24:51.556Z,53.92
2024-02-12T05:27:25.571Z,53.97
2024-02-12T05:29:59.100Z,54.05
2024-02-12T05:32:33.970Z,54.34
2024-02-12T05:35:09.782Z,54.24
2024-02-12T05:37:42.727Z,54.03
2024-02-12T05:40:16.665Z,54.18
2024-02-12T05:42:50.920Z,54.08
2024-02-12T05:45:24.038Z,54.12
2024-02-12T05:47:58.967Z,54.23
2024-02-12T05:50:32.537Z,54.29
2024-02-12T05:53:06.420Z,54.14
2024-02-12T05:55:41.020Z,54.15
2024-02-12T05:58:15.783Z,53.99
2024-02-12T06:01:18.736Z,54.13
2024-02-12T06:03:53.584Z,54.29
2024-02-12T06:06:27.224Z,54.41
2024-02-12T06:09:00.481Z,54.22
2024-02-12T06:11:33.767Z,54.50
2024-02-12T06:14:09.228Z,54.46
2024-02-12T06:16:42.518Z,54.51
2024-02-12T06:19:17.425Z,54.35
2024-02-12T06:21:50.534Z,54.61
2024-02-12T06:24:24.010Z,54.52
2024-02-12T06:26:58.000Z,54.16
2024-02-12T06:29:31.106Z,54.25
2024-02-12T06:32:04.587Z,54.20
2024-02-12T06:34:39.001Z,54.21
2024-02-12T06:37:12.670Z,54.38
2024-02-12T06:39:45.811Z,54.27
2024-02-12T06:42:19.746Z,54.34
2024-02-12T06:44:55.319Z,54.38
2024-02-12T06:47:31.032Z,54.46
2024-02-12T06:50:07.876Z,54.51
2024-02-12T06:52:42.320Z,54.58
2024-02-12T06:55:17.073Z,54.68
2024-02-12T06:57:50.304Z,54.49
2024-02-12T07:00:23.226Z,54.79
2024-02-12T07:02:57.219Z,54.57
2024-02-12T07:05:31.986Z,54.60
2024-02-12T07:08:06.507Z,54.53
2024-02-12T07:10:40.079Z,54.71
2024-02-12T07:13:13.203Z,54.99
2024-02-12T07:15:46.584Z,55.02
2024-02-12T07:18:19.417Z,55.05
2024-02-12T07:20:53.828Z,55.08
2024-02-12T07:23:27.943Z,55.10
2024-02-12T07:26:00.932Z,55.18
2024-02-12T07:28:34.269Z,55.47
2024-02-12T07:31:09.120Z,54.75
2024-02-12T07:33:42.220Z,54.83
2024-02-12T07:36:16.597Z,55.01
2024-02-12T07:38:49.611Z,54.99
2024-02-12T07:41:23.801Z,55.17
2024-02-12T07:43:59.329Z,54.99
2024-02-12T07:46:33.141Z,55.15
2024-02-12T07:49:07.406Z,55.22
2024-02-12T07:51:42.078Z,55.15
2024-02-12T07:54:15.446Z,55.19
2024-02-12T07:56:49.873Z,55.21
2024-02-12T07:59:23.327Z,55.19
2024-02-12T08:01:57.041Z,55.12
2024-02-12T08:04:30.370Z,55.20
2024-02-12T08:07:06.353Z,55.15
2024-02-12T08:09:39.705Z,54.96
2024-02-12T08:12:14.538Z,54.78
2024-02-12T08:14:47.539Z,54.48
2024-02-12T08:17:28.227Z,54.20
2024-02-12T08:20:09.888Z,53.73
2024-02-12T08:22:50.734Z,53.30
2024-02-12T08:25:24.536Z,51.67
2024-02-12T08:27:57.974Z,50.40
2024-02-12T08:30:32.904Z,48.95
2024-02-12T08:33:06.769Z,49.19
2024-02-12T08:35:43.969Z,49.16
2024-02-12T08:38:20.047Z,47.96
2024-02-12T08:40:52.944Z,47.62
2024-02-12T08:43:25.707Z,48.88
2024-02-12T08:45:58.815Z,50.00
2024-02-12T08:48:33.589Z,50.85
2024-02-12T08:51:07.251Z,51.75
2024-02-12T08:53:45.365Z,52.54
2024-02-12T08:56:19.871Z,52.87
2024-02-12T08:58:56.733Z,52.85
2024-02-12T09:01:29.814Z,53.06
2024-02-12T09:04:06.097Z,53.24
2024-02-12T09:06:39.802Z,53.32
2024-02-12T09:09:15.251Z,53.94
2024-02-12T09:11:48.257Z,54.06
2024-02-12T09:14:23.885Z,54.33
2024-02-12T09:16:57.264Z,54.02
2024-02-12T09:19:31.198Z,54.19
2024-02-12T09:22:05.465Z,54.33
2024-02-12T09:24:41.240Z,54.65
2024-02-12T09:27:14.389Z,54.55
2024-02-12T09:29:48.621Z,54.69
2024-02-12T09:32:22.760Z,54.79
2024-02-12T09:34:58.696Z,54.83
2024-02-12T09:37:34.077Z,54.69
2024-02-12T09:40:13.035Z,54.89
2024-02-12T09:42:46.987Z,54.60
2024-02-12T09:45:20.998Z,54.94
2024-02-12T09:47:56.855Z,55.34
2024-02-12T09:50:33.239Z,54.98
2024-02-12T09:53:10.483Z,55.05
2024-02-12T09:55:49.478Z,54.89
2024-02-12T09:58:22.821Z,55.33
2024-02-12T10:00:55.845Z,55.16
2024-02-12T10:03:29.976Z,54.91
2024-02-12T10:06:04.037Z,55.16
2024-02-12T10:08:37.292Z,55.07
2024-02-12T10:11:11.824Z,54.72
2024-02-12T10:13:52.243Z,54.74
2024-02-12T10:16:28.124Z,54.65
2024-02-12T10:19:04.504Z,54.76
2024-02-12T10:21:39.975Z,54.95
2024-02-12T10:24:13.253Z,55.12
2024-02-12T10:26:51.187Z,54.77
2024-02-12T10:29:24.298Z,54.83
2024-02-12T10:31:58.762Z,54.93
2024-02-12T10:34:34.659Z,54.61
2024-02-12T10:37:10.578Z,54.88
2024-02-12T10:39:46.566Z,54.72
2024-02-12T10:42:26.540Z,55.00
2024-02-12T10:45:00.871Z,54.78
2024-02-12T10:47:35.381Z,54.86
2024-02-12T10:50:14.356Z,55.16
2024-02-12T10:52:50.136Z,54.93
2024-02-12T10:55:25.835Z,54.77
2024-02-12T10:58:01.261Z,54.88
2024-02-12T11:00:43.526Z,54.77
2024-02-12T11:03:33.907Z,54.41
2024-02-12T11:06:09.949Z,54.70
2024-02-12T11:08:45.045Z,54.38
2024-02-12T11:11:20.657Z,53.92
2024-02-12T11:14:03.030Z,54.00
2024-02-12T11:16:40.591Z,53.75
2024-02-12T11:19:19.719Z,53.75
2024-02-12T11:21:59.566Z,53.97
2024-02-12T11:24:41.052Z,53.84
2024-02-12T11:27:17.404Z,53.61
2024-02-12T11:29:52.067Z,53.70
2024-02-12T11:32:25.400Z,53.72
2024-02-12T11:35:00.430Z,53.92
2024-02-12T11:37:33.989Z,54.22
2024-02-12T11:40:12.816Z,54.27
2024-02-12T11:42:50.724Z,54.04
2024-02-12T11:45:26.770Z,54.32
2024-02-12T11:48:09.668Z,54.31
2024-02-12T11:50:43.021Z,53.87
2024-02-12T11:53:16.271Z,53.73
2024-02-12T11:55:50.311Z,53.43
2024-02-12T11:58:23.654Z,53.43
2024-02-12T12:00:59.823Z,53.15
2024-02-12T12:03:33.954Z,53.58
2024-02-12T12:06:15.068Z,54.04
2024-02-12T12:08:49.825Z,54.44
2024-02-12T12:11:24.277Z,53.37
2024-02-12T12:14:00.830Z,53.46
2024-02-12T12:16:37.664Z,53.51
2024-02-12T12:19:11.555Z,53.38
2024-02-12T12:21:45.576Z,53.70
2024-02-12T12:24:19.008Z,54.39
2024-02-12T12:26:56.272Z,53.98
2024-02-12T12:29:30.188Z,53.83
2024-02-12T12:32:15.101Z,53.24
2024-02-12T12:34:48.642Z,53.25
2024-02-12T12:37:21.763Z,52.99
2024-02-12T12:39:57.435Z,53.80
2024-02-12T12:42:31.768Z,53.74
2024-02-12T12:45:05.654Z,54.16
2024-02-12T12:47:40.423Z,54.11
2024-02-12T12:50:15.785Z,54.58
2024-02-12T12:52:48.952Z,54.59
2024-02-12T12:55:22.215Z,54.12
2024-02-12T12:57:55.625Z,53.96
2024-02-12T13:00:30.174Z,53.55
2024-02-12T13:03:06.807Z,53.79
2024-02-12T13:05:43.100Z,53.92
2024-02-12T13:08:21.633Z,53.97
2024-02-12T13:10:56.778Z,53.92
2024-02-12T13:13:31.151Z,54.24
2024-02-12T13:16:06.624Z,54.45
2024-02-12T13:18:46.978Z,54.54
2024-02-12T13:21:20.412Z,54.90
2024-02-12T13:23:54.542Z,54.43
2024-02-12T13:26:27.689Z,54.13
2024-02-12T13:29:00.959Z,54.28
2024-02-12T13:31:35.908Z,53.68
2024-02-12T13:34:11.799Z,53.77
2024-02-12T13:36:50.937Z,53.77
2024-02-12T13:39:26.936Z,53.67
2024-02-12T13:41:59.884Z,53.56
2024-02-12T13:44:34.319Z,53.67
2024-02-12T13:47:08.456Z,53.43
2024-02-12T13:49:44.709Z,53.45
2024-02-12T13:52:18.803Z,53.57
2024-02-12T13:54:56.376Z,53.14
2024-02-12T13:57:29.505Z,53.16
2024-02-12T14:00:23.680Z,53.16
2024-02-12T14:02:56.010Z,53.09
2024-02-12T14:05:31.786Z,53.16
2024-02-12T14:08:06.386Z,52.53
2024-02-12T14:10:39.958Z,53.15
2024-02-12T14:13:14.097Z,52.89
2024-02-12T14:16:05.000Z,52.72
2024-02-12T14:18:44.066Z,52.89
2024-02-12T14:21:19.924Z,52.83
2024-02-12T14:23:53.166Z,52.96
2024-02-12T14:26:28.410Z,53.15
2024-02-12T14:29:02.518Z,53.01
2024-02-12T14:32:34.209Z,53.25
2024-02-12T14:34:31.483Z,53.02
2024-02-12T14:37:06.664Z,52.78
2024-02-12T14:39:40.712Z,52.80
2024-02-12T14:42:14.122Z,52.93
2024-02-12T14:45:02.468Z,53.82
2024-02-12T14:47:45.840Z,52.97
2024-02-12T14:50:23.269Z,52.56
2024-02-12T14:52:58.097Z,52.94
2024-02-12T14:55:32.142Z,53.11
2024-02-12T14:58:06.810Z,52.89
2024-02-12T15:00:40.585Z,53.14
2024-02-12T15:03:13.994Z,53.16
2024-02-12T15:05:48.087Z,52.80
2024-02-12T15:08:22.843Z,52.98
2024-02-12T15:10:55.901Z,53.00
2024-02-12T15:13:33.743Z,52.83
2024-02-12T15:16:08.459Z,53.13
2024-02-12T15:18:43.690Z,53.15
2024-02-12T15:21:18.262Z,53.07
2024-02-12T15:23:52.910Z,52.97
2024-02-12T15:26:26.018Z,52.92
2024-02-12T15:28:59.357Z,52.96
2024-02-12T15:31:32.876Z,53.09
2024-02-12T15:34:07.486Z,53.03
2024-02-12T15:36:42.136Z,52.75
2024-02-12T15:39:16.902Z,52.71
2024-02-12T15:41:50.371Z,52.64
2024-02-12T15:44:24.004Z,52.99
2024-02-12T15:47:03.301Z,53.13
2024-02-12T15:49:37.790Z,52.78
2024-02-12T15:52:12.123Z,52.78
2024-02-12T15:54:50.481Z,53.34
2024-02-12T15:57:27.450Z,52.77
2024-02-12T16:00:00.865Z,52.51
2024-02-12T16:02:33.887Z,52.64
2024-02-12T16:05:49.437Z,53.02
2024-02-12T16:08:22.631Z,52.72
2024-02-12T16:10:58.867Z,52.69
2024-02-12T16:13:32.731Z,52.52
2024-02-12T16:16:07.752Z,52.64
2024-02-12T16:18:41.591Z,52.51
2024-02-12T16:21:18.372Z,52.73
2024-02-12T16:23:52.738Z,52.47
2024-02-12T16:26:28.161Z,52.35
2024-02-12T16:29:03.280Z,52.57
2024-02-12T16:31:41.318Z,52.87
2024-02-12T16:34:15.632Z,52.61
2024-02-12T16:36:49.920Z,52.92
2024-02-12T16:39:23.870Z,53.10
2024-02-12T16:41:59.192Z,53.10
2024-02-12T16:44:32.210Z,53.04
2024-02-12T16:47:05.505Z,53.37
2024-02-12T16:49:40.864Z,53.07
2024-02-12T16:52:15.205Z,53.22
2024-02-12T16:54:48.914Z,52.94
2024-02-12T16:57:23.456Z,52.83
2024-02-12T16:59:58.445Z,52.84
2024-02-12T17:02:31.926Z,52.94
2024-02-12T17:05:06.359Z,52.96
2024-02-12T17:07:49.383Z,53.24
2024-02-12T17:10:31.021Z,53.06
2024-02-12T17:13:06.913Z,53.08
2024-02-12T17:15:41.639Z,53.14
2024-02-12T17:18:15.483Z,53.34
2024-02-12T17:20:50.668Z,53.39
2024-02-12T17:23:25.109Z,53.47
2024-02-12T17:25:58.407Z,53.48
2024-02-12T17:28:33.193Z,53.60
2024-02-12T17:31:07.436Z,53.73
2024-02-12T17:33:40.766Z,53.39
2024-02-12T17:36:15.277Z,53.33
2024-02-12T17:38:48.969Z,53.20
2024-02-12T17:41:22.276Z,53.25
2024-02-12T17:43:58.522Z,53.23
2024-02-12T17:46:32.157Z,53.04
2024-02-12T17:49:07.596Z,53.12
2024-02-12T17:51:40.788Z,52.91
2024-02-12T17:54:15.778Z,53.10
2024-02-12T17:56:51.129Z,52.75
2024-02-12T17:59:29.782Z,53.10
2024-02-12T18:02:02.785Z,53.11
2024-02-12T18:04:37.095Z,53.01
2024-02-12T18:07:14.272Z,53.11
2024-02-12T18:09:47.698Z,53.15
2024-02-12T18:12:22.995Z,53.03
2024-02-12T18:14:58.122Z,53.11
2024-02-12T18:17:31.812Z,53.07
2024-02-12T18:20:06.361Z,52.82
2024-02-12T18:22:39.410Z,53.03
2024-02-12T18:25:13.111Z,53.06
2024-02-12T18:27:49.899Z,53.01
2024-02-12T18:30:24.457Z,53.10
2024-02-12T18:32:58.056Z,53.32
2024-02-12T18:35:31.362Z,53.52
2024-02-12T18:38:07.915Z,53.56
2024-02-12T18:40:41.074Z,53.49
2024-02-12T18:43:17.579Z,53.54
2024-02-12T18:45:53.006Z,53.56
2024-02-12T18:48:26.230Z,53.37
2024-02-12T18:51:01.223Z,53.76
2024-02-12T18:53:37.641Z,53.80
2024-02-12T18:56:11.248Z,53.86
2024-02-12T18:58:50.259Z,53.86
2024-02-12T19:01:25.172Z,53.88
2024-02-12T19:04:01.870Z,53.91
2024-02-12T19:06:35.313Z,53.86
2024-02-12T19:09:11.581Z,53.69
2024-02-12T19:11:47.556Z,53.72
2024-02-12T19:14:20.896Z,53.96
2024-02-12T19:16:55.597Z,54.05
2024-02-12T19:19:28.651Z,54.15
2024-02-12T19:22:05.314Z,54.27
2024-02-12T19:24:41.155Z,54.19
2024-02-12T19:27:18.155Z,54.39
2024-02-12T19:29:53.251Z,54.28
2024-02-12T19:32:32.803Z,54.14
2024-02-12T19:35:12.298Z,54.04
2024-02-12T19:37:49.174Z,54.02
2024-02-12T19:40:25.844Z,54.10
2024-02-12T19:42:59.149Z,53.86
2024-02-12T19:45:33.792Z,54.17
2024-02-12T19:48:09.759Z,54.21
2024-02-12T19:50:42.945Z,54.49
2024-02-12T19:53:16.695Z,54.47
2024-02-12T19:55:50.526Z,54.41
2024-02-12T19:58:24.001Z,54.55
2024-02-12T20:01:02.751Z,54.54
2024-02-12T20:03:39.796Z,54.46
2024-02-12T20:06:15.472Z,54.49
2024-02-12T20:08:48.722Z,54.41
2024-02-12T20:11:22.061Z,54.53
2024-02-12T20:13:55.485Z,54.67
2024-02-12T20:16:33.694Z,54.60
2024-02-12T20:19:09.172Z,54.63
2024-02-12T20:21:42.522Z,54.68
2024-02-12T20:24:15.772Z,54.72
2024-02-12T20:26:52.947Z,54.88
2024-02-12T20:29:26.959Z,54.86
2024-02-12T20:32:02.639Z,54.97
2024-02-12T20:34:38.884Z,55.13
2024-02-12T20:37:12.792Z,55.21
2024-02-12T20:39:48.233Z,55.21
2024-02-12T20:42:21.910Z,55.24
2024-02-12T20:44:55.440Z,55.52
2024-02-12T20:47:28.426Z,55.37
2024-02-12T20:50:08.389Z,55.46
2024-02-12T20:52:43.824Z,55.18
2024-02-12T20:55:18.423Z,55.03
2024-02-12T20:57:51.490Z,54.97
2024-02-12T21:00:25.017Z,54.92
2024-02-12T21:02:58.765Z,55.09
2024-02-12T21:05:34.123Z,55.06
2024-02-12T21:08:09.088Z,54.98
2024-02-12T21:10:43.512Z,55.06
2024-02-12T21:13:16.760Z,54.98
2024-02-12T21:15:49.747Z,54.93
2024-02-12T21:18:22.793Z,54.79
2024-02-12T21:20:58.674Z,54.50
2024-02-12T21:23:32.114Z,54.43
2024-02-12T21:26:07.810Z,54.49
2024-02-12T21:28:40.929Z,54.45
2024-02-12T21:31:14.087Z,54.54
2024-02-12T21:33:49.026Z,54.41
2024-02-12T21:36:25.452Z,54.56
2024-02-12T21:38:58.929Z,54.43
2024-02-12T21:41:52.356Z,54.25
2024-02-12T21:44:25.540Z,54.30
2024-02-12T21:46:59.180Z,54.57
2024-02-12T21:49:32.803Z,54.51
2024-02-12T21:52:08.396Z,54.87
2024-02-12T21:54:43.108Z,54.75
2024-02-12T21:57:16.487Z,55.04
2024-02-12T21:59:52.062Z,55.02
2024-02-12T22:02:25.758Z,55.25
2024-02-12T22:04:58.872Z,54.99
2024-02-12T22:07:33.862Z,55.11
2024-02-12T22:10:07.847Z,55.26
2024-02-12T22:12:43.820Z,55.28
2024-02-12T22:15:18.863Z,55.12
2024-02-12T22:17:52.186Z,54.88
2024-02-12T22:20:25.235Z,55.39
2024-02-12T22:22:59.754Z,54.96
2024-02-12T22:25:32.911Z,55.18
2024-02-12T22:28:08.941Z,55.35
2024-02-12T22:30:42.363Z,55.29
2024-02-12T22:33:16.823Z,55.68
2024-02-12T22:35:54.767Z,55.78
2024-02-12T22:38:29.883Z,55.91
2024-02-12T22:41:03.888Z,55.40
2024-02-12T22:43:36.905Z,54.81
2024-02-12T22:46:11.351Z,54.61
2024-02-12T22:48:45.176Z,54.90
2024-02-12T22:51:19.087Z,54.73
2024-02-12T22:53:54.623Z,54.69
2024-02-12T22:56:30.224Z,54.53
2024-02-12T22:59:08.059Z,54.39
2024-02-12T23:01:41.449Z,54.48
2024-02-12T23:04:14.883Z,54.60
2024-02-12T23:06:48.327Z,54.58
2024-02-12T23:09:25.002Z,54.70
2024-02-12T23:11:58.781Z,54.79
2024-02-12T23:14:32.038Z,54.87
2024-02-12T23:17:05.583Z,54.80
2024-02-12T23:19:39.554Z,54.72
2024-02-12T23:22:14.456Z,54.68
2024-02-12T23:24:49.136Z,54.98
2024-02-12T23:27:22.316Z,54.92
2024-02-12T23:29:59.694Z,54.87
2024-02-12T23:32:34.068Z,54.87
2024-02-12T23:35:09.712Z,54.85
2024-02-12T23:37:42.687Z,55.20
2024-02-12T23:40:17.703Z,55.03
2024-02-12T23:42:53.240Z,54.71
2024-02-12T23:45:26.663Z,55.09
2024-02-12T23:48:00.161Z,55.17
2024-02-12T23:50:34.051Z,54.98
2024-02-12T23:53:07.214Z,54.97
2024-02-12T23:55:41.879Z,55.08
2024-02-12T23:58:15.033Z,55.10
